createdAt,value
2023-04-18T00:02:19.266Z,7.95
2023-04-18T00:07:21.701Z,7.93
2023-04-18T00:12:23.448Z,7.93
2023-04-18T00:17:28.236Z,7.97
2023-04-18T00:22:29.950Z,7.96
2023-04-18T00:27:33.980Z,7.97
2023-04-18T00:32:38.027Z,7.99
2023-04-18T00:37:39.793Z,8.01
2023-04-18T00:42:41.451Z,8.01
2023-04-18T00:47:47.861Z,8.02
2023-04-18T00:52:53.624Z,8.02
2023-04-18T00:57:55.900Z,8.00
2023-04-18T01:02:57.649Z,8.00
2023-04-18T01:08:01.248Z,8.01
2023-04-18T01:13:29.470Z,8.03
2023-04-18T01:18:31.611Z,7.98
2023-04-18T01:23:33.273Z,8.00
2023-04-18T01:28:37.039Z,7.98
2023-04-18T01:33:38.733Z,7.93
2023-04-18T01:38:42.774Z,7.88
2023-04-18T01:43:48.772Z,7.84
2023-04-18T01:48:52.910Z,7.74
2023-04-18T01:53:58.123Z,7.63
2023-04-18T01:58:59.898Z,7.46
2023-04-18T02:04:01.663Z,7.33
2023-04-18T02:09:05.629Z,7.32
2023-04-18T02:14:07.352Z,7.35
2023-04-18T02:19:13.856Z,7.30
2023-04-18T02:24:17.578Z,7.22
2023-04-18T02:29:21.844Z,7.19
2023-04-18T02:34:25.887Z,7.19
2023-04-18T02:39:29.716Z,7.19
2023-04-18T02:44:33.717Z,7.20
2023-04-18T02:49:35.397Z,7.14
2023-04-18T02:54:37.112Z,7.03
2023-04-18T02:59:52.203Z,6.96
2023-04-18T03:05:14.004Z,6.94
2023-04-18T03:10:18.051Z,6.92
2023-04-18T03:15:21.056Z,6.94
2023-04-18T03:20:27.694Z,6.99
2023-04-18T03:25:36.491Z,7.04
2023-04-18T03:30:43.116Z,7.03
2023-04-18T03:35:45.654Z,7.02
2023-04-18T03:40:49.848Z,6.98
2023-04-18T03:46:03.590Z,6.91
2023-04-18T03:51:08.857Z,6.79
2023-04-18T03:56:11.788Z,6.70
2023-04-18T04:01:32.158Z,6.67
2023-04-18T04:06:37.331Z,6.67
2023-04-18T04:11:41.639Z,6.64
2023-04-18T04:16:46.414Z,6.62
2023-04-18T04:21:51.287Z,6.54
2023-04-18T04:26:53.289Z,6.45
2023-04-18T04:31:59.577Z,6.33
2023-04-18T04:37:14.068Z,6.19
2023-04-18T04:42:28.626Z,6.43
2023-04-18T04:47:47.461Z,6.68
2023-04-18T04:52:49.890Z,6.83
2023-04-18T04:57:51.783Z,6.75
2023-04-18T05:03:08.420Z,6.56
2023-04-18T05:08:13.688Z,6.44
2023-04-18T05:13:17.424Z,6.41
2023-04-18T05:18:23.597Z,6.38
2023-04-18T05:23:27.806Z,6.36
2023-04-18T05:28:29.577Z,6.37
2023-04-18T05:33:33.952Z,6.37
2023-04-18T05:38:37.742Z,6.41
2023-04-18T05:43:39.444Z,6.40
2023-04-18T05:48:41.229Z,6.44
2023-04-18T05:53:43.052Z,6.48
2023-04-18T05:58:47.837Z,6.50
2023-04-18T06:03:52.664Z,6.57
2023-04-18T06:08:54.910Z,6.64
2023-04-18T06:14:00.263Z,6.68
2023-04-18T06:19:03.400Z,6.75
2023-04-18T06:24:05.985Z,6.84
2023-04-18T06:29:12.411Z,6.91
2023-04-18T06:34:18.929Z,7.04
2023-04-18T06:39:23.245Z,7.13
2023-04-18T06:44:24.973Z,7.22
2023-04-18T06:49:26.923Z,7.29
2023-04-18T06:54:28.654Z,7.38
2023-04-18T06:59:30.738Z,7.47
2023-04-18T07:04:32.578Z,7.59
2023-04-18T07:09:36.635Z,7.64
2023-04-18T07:14:38.857Z,7.74
2023-04-18T07:19:45.374Z,7.83
2023-04-18T07:24:49.397Z,7.95
2023-04-18T07:29:51.178Z,8.09
2023-04-18T07:34:52.825Z,8.24
2023-04-18T07:39:54.660Z,8.34
2023-04-18T07:44:59.276Z,8.43
2023-04-18T07:50:01.194Z,8.63
2023-04-18T07:55:02.905Z,8.71
2023-04-18T08:00:08.074Z,8.82
2023-04-18T08:05:17.705Z,8.95
2023-04-18T08:10:21.361Z,9.10
2023-04-18T08:15:24.982Z,9.18
2023-04-18T08:20:27.129Z,9.33
2023-04-18T08:25:29.071Z,9.57
2023-04-18T08:30:33.236Z,9.75
2023-04-18T08:35:35.432Z,9.99
2023-04-18T08:40:37.604Z,10.14
2023-04-18T08:45:42.212Z,10.26
2023-04-18T08:50:46.110Z,10.41
2023-04-18T08:55:50.566Z,10.52
2023-04-18T09:00:55.067Z,10.61
2023-04-18T09:06:10.111Z,10.78
2023-04-18T09:11:29.118Z,10.96
2023-04-18T09:16:47.432Z,11.06
2023-04-18T09:21:58.024Z,11.17
2023-04-18T09:27:04.122Z,11.34
2023-04-18T09:32:08.172Z,11.38
2023-04-18T09:37:13.842Z,11.44
2023-04-18T09:42:17.955Z,11.65
2023-04-18T09:47:19.644Z,11.76
2023-04-18T09:52:24.126Z,11.90
2023-04-18T09:57:28.881Z,11.94
2023-04-18T10:02:39.167Z,12.03
2023-04-18T10:07:42.153Z,12.02
2023-04-18T10:12:53.129Z,12.12
2023-04-18T10:18:06.030Z,12.09
2023-04-18T10:23:36.506Z,12.28
2023-04-18T10:28:59.994Z,12.52
2023-04-18T10:34:08.694Z,12.69
2023-04-18T10:39:23.752Z,12.69
2023-04-18T10:44:25.893Z,12.64
2023-04-18T10:49:33.626Z,12.85
2023-04-18T10:54:56.054Z,12.92
2023-04-18T11:00:02.410Z,13.06
2023-04-18T11:05:07.938Z,13.18
2023-04-18T11:10:12.557Z,13.27
2023-04-18T11:15:22.096Z,13.88
2023-04-18T11:20:26.783Z,14.39
2023-04-18T11:25:40.735Z,14.40
2023-04-18T11:30:42.789Z,14.15
2023-04-18T11:35:47.626Z,14.01
2023-04-18T11:40:50.091Z,14.21
2023-04-18T11:45:52.773Z,14.51
2023-04-18T11:50:54.578Z,15.04
2023-04-18T11:55:59.887Z,16.54
2023-04-18T12:01:16.814Z,15.60
2023-04-18T12:06:18.521Z,14.59
2023-04-18T12:11:21.614Z,14.11
2023-04-18T12:16:28.348Z,13.63
2023-04-18T12:21:33.124Z,13.42
2023-04-18T12:26:34.837Z,13.41
2023-04-18T12:31:36.688Z,13.35
2023-04-18T12:36:38.416Z,13.38
2023-04-18T12:41:40.373Z,13.57
2023-04-18T12:46:42.244Z,13.97
2023-04-18T12:51:48.943Z,13.80
2023-04-18T12:56:53.405Z,13.89
2023-04-18T13:01:57.192Z,13.95
2023-04-18T13:07:01.435Z,13.98
2023-04-18T13:12:03.619Z,14.06
2023-04-18T13:17:05.696Z,13.96
2023-04-18T13:22:07.484Z,14.15
2023-04-18T13:27:12.150Z,14.29
2023-04-18T13:32:13.984Z,14.39
2023-04-18T13:37:18.702Z,14.53
2023-04-18T13:42:20.607Z,14.45
2023-04-18T13:47:25.960Z,14.35
2023-04-18T13:52:29.774Z,14.22
2023-04-18T13:57:34.780Z,16.24
2023-04-18T14:02:39.038Z,16.48
2023-04-18T14:07:41.371Z,16.94
2023-04-18T14:12:43.099Z,16.28
2023-04-18T14:17:45.807Z,16.32
2023-04-18T14:22:53.001Z,16.53
2023-04-18T14:28:05.302Z,16.84
2023-04-18T14:33:09.160Z,16.65
2023-04-18T14:38:11.367Z,16.13
2023-04-18T14:43:16.012Z,15.57
2023-04-18T14:48:21.120Z,15.49
2023-04-18T14:53:25.421Z,15.35
2023-04-18T14:58:27.267Z,14.98
2023-04-18T15:03:29.227Z,15.00
2023-04-18T15:08:33.309Z,15.11
2023-04-18T15:13:35.247Z,15.13
2023-04-18T15:18:39.097Z,15.00
2023-04-18T15:23:41.199Z,14.93
2023-04-18T15:28:43.079Z,15.01
2023-04-18T15:33:44.818Z,14.98
2023-04-18T15:38:46.519Z,14.66
2023-04-18T15:43:52.745Z,14.35
2023-04-18T15:48:57.017Z,14.11
2023-04-18T15:54:06.528Z,13.99
2023-04-18T15:59:10.938Z,13.99
2023-04-18T16:04:14.957Z,14.07
2023-04-18T16:09:17.059Z,14.04
2023-04-18T16:14:18.885Z,14.00
2023-04-18T16:19:20.729Z,13.91
2023-04-18T16:24:25.571Z,13.79
2023-04-18T16:29:27.624Z,13.75
2023-04-18T16:34:29.361Z,13.96
2023-04-18T16:39:31.209Z,14.13
2023-04-18T16:44:33.303Z,14.30
2023-04-18T16:49:35.110Z,14.23
2023-04-18T16:54:41.671Z,14.26
2023-04-18T16:59:47.436Z,14.17
2023-04-18T17:04:49.597Z,14.12
2023-04-18T17:09:54.001Z,13.92
2023-04-18T17:14:58.880Z,13.79
2023-04-18T17:20:01.334Z,13.60
2023-04-18T17:25:06.610Z,13.46
2023-04-18T17:30:08.872Z,13.23
2023-04-18T17:35:14.681Z,13.11
2023-04-18T17:40:18.569Z,12.96
2023-04-18T17:45:22.301Z,12.70
2023-04-18T17:50:24.018Z,12.58
2023-04-18T17:55:27.957Z,12.47
2023-04-18T18:00:34.984Z,12.32
2023-04-18T18:05:36.611Z,12.19
2023-04-18T18:10:38.840Z,12.09
2023-04-18T18:15:40.545Z,11.99
2023-04-18T18:20:43.268Z,11.93
2023-04-18T18:25:47.658Z,11.84
2023-04-18T18:30:49.585Z,11.74
2023-04-18T18:35:58.445Z,11.67
2023-04-18T18:41:04.630Z,11.64
2023-04-18T18:46:06.427Z,11.75
2023-04-18T18:51:08.811Z,11.71
2023-04-18T18:56:13.562Z,11.56
2023-04-18T19:01:15.423Z,11.39
2023-04-18T19:06:17.153Z,11.21
2023-04-18T19:11:19.624Z,11.00
2023-04-18T19:16:26.403Z,10.67
2023-04-18T19:21:35.587Z,10.32
2023-04-18T19:26:41.286Z,10.07
2023-04-18T19:31:45.640Z,9.87
2023-04-18T19:36:50.691Z,9.74
2023-04-18T19:41:52.570Z,9.60
2023-04-18T19:46:54.287Z,9.49
2023-04-18T19:52:00.453Z,9.39
2023-04-18T19:57:06.265Z,9.36
2023-04-18T20:02:10.312Z,9.54
2023-04-18T20:07:14.168Z,9.42
2023-04-18T20:12:15.945Z,9.20
2023-04-18T20:17:20.199Z,9.08
2023-04-18T20:22:21.900Z,8.94
2023-04-18T20:27:23.690Z,8.85
2023-04-18T20:32:26.629Z,8.77
2023-04-18T20:37:28.536Z,8.70
2023-04-18T20:42:30.274Z,8.59
2023-04-18T20:47:36.812Z,8.51
2023-04-18T20:52:38.609Z,8.45
2023-04-18T20:57:40.392Z,8.42
2023-04-18T21:02:44.860Z,8.31
2023-04-18T21:07:49.838Z,8.22
2023-04-18T21:12:51.729Z,8.16
2023-04-18T21:17:57.977Z,8.12
2023-04-18T21:22:59.807Z,8.09
2023-04-18T21:28:04.755Z,8.02
2023-04-18T21:33:08.877Z,7.99
2023-04-18T21:38:10.583Z,7.88
2023-04-18T21:43:14.589Z,7.80
2023-04-18T21:48:16.499Z,7.75
2023-04-18T21:53:18.163Z,7.66
2023-04-18T21:58:22.846Z,7.59
2023-04-18T22:03:28.666Z,7.56
2023-04-18T22:08:31.116Z,7.56
2023-04-18T22:13:35.653Z,7.51
2023-04-18T22:18:39.665Z,7.43
2023-04-18T22:30:28.883Z,7.24
2023-04-18T22:35:33.280Z,7.19
2023-04-18T22:40:34.980Z,7.15
2023-04-18T22:45:36.777Z,7.14
2023-04-18T22:50:47.334Z,7.07
2023-04-18T22:55:49.060Z,7.08
2023-04-18T23:00:53.085Z,7.07
2023-04-18T23:05:54.804Z,7.05
2023-04-18T23:10:58.731Z,6.99
2023-04-18T23:16:00.593Z,6.94
2023-04-18T23:21:07.196Z,6.86
2023-04-18T23:26:14.409Z,6.80
2023-04-18T23:31:18.610Z,6.75
2023-04-18T23:36:22.617Z,6.66
2023-04-18T23:41:24.306Z,6.57
2023-04-18T23:46:27.328Z,6.53
2023-04-18T23:51:29.012Z,6.44
2023-04-18T23:56:30.714Z,6.37
